createdAt,value
2023-02-19T00:05:07.269Z,43.05
2023-02-19T00:15:08.749Z,43.05
2023-02-19T00:25:10.263Z,43.04
2023-02-19T00:35:11.666Z,43.12
2023-02-19T00:45:13.046Z,43.01
2023-02-19T00:55:14.581Z,43.08
2023-02-19T01:05:15.964Z,43.09
2023-02-19T01:15:17.543Z,43.01
2023-02-19T01:25:19.600Z,43.08
2023-02-19T01:35:21.172Z,43.03
2023-02-19T01:45:25.332Z,43.13
2023-02-19T01:55:26.721Z,43.06
2023-02-19T02:05:35.282Z,43.09
2023-02-19T02:15:41.973Z,43.05
2023-02-19T02:26:13.113Z,43.08
2023-02-19T02:36:16.580Z,43.14
2023-02-19T02:46:23.214Z,43.12
2023-02-19T02:56:24.587Z,43.18
2023-02-19T03:06:25.971Z,43.23
2023-02-19T03:16:47.570Z,43.09
2023-02-19T03:26:54.284Z,43.21
2023-02-19T03:37:26.777Z,43.18
2023-02-19T03:47:34.357Z,43.18
2023-02-19T03:57:38.762Z,43.11
2023-02-19T04:07:42.436Z,43.18
2023-02-19T04:17:55.148Z,43.08
2023-02-19T04:27:56.581Z,43.13
2023-02-19T04:37:57.973Z,43.13
2023-02-19T04:47:59.359Z,43.23
2023-02-19T04:58:00.870Z,43.08
2023-02-19T05:08:02.235Z,43.05
2023-02-19T05:18:03.775Z,43.05
2023-02-19T05:28:17.252Z,42.82
2023-02-19T05:38:18.654Z,42.59
2023-02-19T05:48:20.195Z,42.33
2023-02-19T05:58:21.602Z,42.16
2023-02-19T06:08:23.157Z,41.89
2023-02-19T06:18:24.664Z,41.79
2023-02-19T06:28:26.052Z,41.83
2023-02-19T06:38:27.506Z,42.02
2023-02-19T06:48:29.131Z,41.94
2023-02-19T06:58:30.902Z,41.96
2023-02-19T07:08:32.404Z,42.22
2023-02-19T07:18:34.439Z,42.15
2023-02-19T07:28:35.971Z,41.99
2023-02-19T07:38:37.416Z,42.20
2023-02-19T07:48:39.300Z,42.01
2023-02-19T07:58:40.708Z,42.05
2023-02-19T08:08:42.092Z,42.32
2023-02-19T08:18:43.493Z,42.17
2023-02-19T08:28:44.934Z,42.19
2023-02-19T08:38:46.303Z,42.10
2023-02-19T08:48:47.695Z,42.09
2023-02-19T08:58:49.131Z,42.13
2023-02-19T09:08:50.671Z,42.25
2023-02-19T09:18:52.057Z,42.21
2023-02-19T09:28:53.494Z,41.95
2023-02-19T09:38:55.012Z,41.94
2023-02-19T09:49:17.498Z,41.90
2023-02-19T09:59:25.605Z,41.91
2023-02-19T10:09:28.828Z,42.04
2023-02-19T10:19:30.804Z,42.11
2023-02-19T10:29:32.198Z,42.29
2023-02-19T10:39:40.195Z,42.16
2023-02-19T10:49:44.094Z,42.17
2023-02-19T10:59:53.153Z,42.14
2023-02-19T11:09:54.528Z,41.81
2023-02-19T11:20:00.953Z,41.74
2023-02-19T11:30:35.269Z,41.94
2023-02-19T11:40:41.917Z,42.02
2023-02-19T11:50:56.673Z,42.18
2023-02-19T12:01:20.772Z,41.98
2023-02-19T12:11:45.001Z,42.13
2023-02-19T12:22:08.214Z,41.94
2023-02-19T12:32:36.838Z,42.07
2023-02-19T12:43:05.967Z,42.18
2023-02-19T12:53:25.184Z,42.19
2023-02-19T13:03:41.358Z,42.11
2023-02-19T13:13:45.740Z,42.14
2023-02-19T13:23:59.463Z,42.01
2023-02-19T13:34:48.706Z,42.10
2023-02-19T13:44:52.436Z,41.91
2023-02-19T13:55:40.186Z,42.16
2023-02-19T14:06:00.132Z,42.28
2023-02-19T14:16:01.589Z,42.33
2023-02-19T14:26:04.890Z,42.37
2023-02-19T14:36:06.367Z,42.42
2023-02-19T14:46:13.648Z,42.40
2023-02-19T14:56:24.023Z,42.39
2023-02-19T15:06:25.628Z,42.39
2023-02-19T15:16:27.141Z,42.47
2023-02-19T15:26:32.228Z,42.46
2023-02-19T15:36:34.293Z,42.53
2023-02-19T15:46:35.715Z,42.61
2023-02-19T15:56:37.310Z,42.76
2023-02-19T16:06:58.438Z,42.76
2023-02-19T16:17:14.277Z,42.78
2023-02-19T16:27:27.754Z,42.96
2023-02-19T16:37:55.343Z,42.97
2023-02-19T16:47:56.865Z,43.04
2023-02-19T16:57:58.443Z,43.08
2023-02-19T17:07:59.823Z,43.11
2023-02-19T17:18:01.341Z,43.09
2023-02-19T17:28:02.707Z,43.14
2023-02-19T17:38:09.335Z,43.23
2023-02-19T17:48:14.182Z,43.25
2023-02-19T17:58:15.578Z,43.18
2023-02-19T18:08:17.115Z,43.23
2023-02-19T18:18:18.649Z,43.20
2023-02-19T18:28:20.173Z,43.42
2023-02-19T18:38:21.702Z,43.37
2023-02-19T18:48:23.554Z,43.38
2023-02-19T18:58:25.725Z,43.39
2023-02-19T19:08:29.146Z,43.56
2023-02-19T19:18:31.918Z,43.54
2023-02-19T19:28:33.312Z,43.58
2023-02-19T19:38:34.852Z,43.55
2023-02-19T19:48:36.372Z,43.64
2023-02-19T19:58:37.817Z,43.73
2023-02-19T20:08:39.202Z,43.78
2023-02-19T20:18:40.967Z,43.77
2023-02-19T20:28:45.187Z,43.84
2023-02-19T20:38:48.709Z,43.84
2023-02-19T20:48:51.873Z,43.89
2023-02-19T20:58:53.450Z,43.96
2023-02-19T21:08:55.015Z,44.06
2023-02-19T21:18:56.616Z,44.02
2023-02-19T21:28:58.051Z,44.10
2023-02-19T21:39:00.738Z,44.16
2023-02-19T21:49:02.349Z,44.19
2023-02-19T21:59:03.896Z,44.22
2023-02-19T22:09:05.304Z,44.21
2023-02-19T22:19:06.677Z,44.33
2023-02-19T22:29:09.512Z,44.26
2023-02-19T22:39:22.752Z,44.29
2023-02-19T22:49:24.353Z,44.42
2023-02-19T22:59:25.743Z,44.47
2023-02-19T23:09:27.786Z,44.48
2023-02-19T23:19:29.337Z,44.59
2023-02-19T23:29:30.900Z,44.45
2023-02-19T23:39:32.289Z,44.63
2023-02-19T23:49:33.662Z,44.52
2023-02-19T23:59:35.051Z,44.48
